Historyczne dane pomiarowe

Dodano dane terminowe – wersja testowa.

Dane z okresu 1951-2019

Wersja bazy: 1.34 [2019-03-16, lista zmian], aktualizacja planowana na 2019-04-15

Dane meteo z obszaru Polski uzyskane na podstawie danych udostępnionych przez Instytut Meteorologii i Gospodarki Wodnej – Państwowy Instytut Badawczy.

 

Wybierz Datę:    

       

TemperaturaWilgotnośćZachmurzenieWiatrCiśnienieWidzialnośćZjawiska
 Data    tng td wb rh cc ccl cl cm ch dir g1 g2 mslp ppp      
1999-06-23 00:00:00 9.4--- 8.3 8.893wxwxwxwx7wx--1016.3 991.3 3.8---wxw1
1999-06-23 01:00:00 9.3--- 8.2 8.793wxwxwxwx5wx--1016.6 991.6----wx
1999-06-23 02:00:00 9.1--- 8.1 8.694wxwxwxwx6wx--1016.7 991.7----wx
1999-06-23 03:00:00 8.5--- 7.3 7.992wxwxwxwx6wx--1017.0 991.9----wx
1999-06-23 04:00:00 10.1--- 8.2 9.188wxwxwxwx7wx--1017.3 992.4----wx
1999-06-23 05:00:00 10.2--- 8.3 9.288wxwxwxwx6wx--1018.1 993.2----wx
1999-06-23 06:00:00 10.3--- 8.4 9.388wxwxwxwx6wx--1018.6 993.7 0.0---wxw1
1999-06-23 07:00:00 10.2--- 8.7 9.490wxwxwxwx6wx--1019.0 994.0----wxw1
1999-06-23 08:00:00 11.0--- 9.9 10.493wxwxwxwx5wx--1019.4 994.5----wxw1
1999-06-23 09:00:00 11.4--- 9.2 10.286wxwxwxwx5wx--1019.7 994.8----wxw1
1999-06-23 10:00:00 12.2--- 9.3 10.682wxwxwxwx6wx--1020.0 995.2----wxw1
1999-06-23 11:00:00 12.4--- 8.7 10.478wxwxwxwx5wx--1020.4 995.6----wx
1999-06-23 12:00:00 12.4--- 8.7 10.478wxwxwxwx5wx--1020.6 995.8 1.2---wxw1
1999-06-23 13:00:00 13.0--- 8.5 10.674wxwxwxwx5wx--1021.1 996.3----wx
1999-06-23 14:00:00 13.2--- 8.8 10.875wxwxwxwx4wx--1021.4 996.6----wx
1999-06-23 15:00:00 13.2--- 8.8 10.875wxwxwxwx2wx--1021.6 996.8----wxw1
1999-06-23 16:00:00 14.0--- 9.7 11.675wxwxwxwx2wx--1021.6 996.9----wx
1999-06-23 17:00:00 13.6--- 10.0 11.679wxwxwxwx1wx--1022.0 997.3----wx
1999-06-23 18:00:00 13.3--- 10.1 11.581wxwxwxwx1wx--1022.4 997.6 0.0---wxw1
1999-06-23 19:00:00 11.7--- 9.9 10.789wxwxwxwx1wx--1022.9 998.0----wx
1999-06-23 20:00:00 10.5--- 8.6 9.588wxwxwx1wx--1023.2 998.2----wx
1999-06-23 21:00:00 9.6--- 8.3 8.991wxwxwxwx1wx--1023.7 998.6----wx
1999-06-23 22:00:00 8.6--- 7.2 7.991wxwxwx2wx--1023.8 998.6----wx
1999-06-23 23:00:00 8.3--- 7.3 7.894wxwxwx1wx--1023.8 998.6----wx

 

Źródłem pochodzenia danych jest Instytut Meteorologii i Gospodarki Wodnej – Państwowy Instytut Badawczy. Dane Instytutu Meteorologii i Gospodarki Wodnej – Państwowego Instytutu Badawczego zostały przetworzone.

Dane źródłowe można odnaleźć na stronie https://dane.imgw.pl